sensor_id;sensor_type;location;lat;lon;timestamp;P1;durP1;ratioP1;P2;durP2;ratioP2
71622;SDS011;59473;53.214;5.728;2023-06-10T00:02:13;17.97;;;4.77;;
71622;SDS011;59473;53.214;5.728;2023-06-10T00:04:38;12.07;;;4.80;;
71622;SDS011;59473;53.214;5.728;2023-06-10T00:07:04;14.97;;;5.00;;
71622;SDS011;59473;53.214;5.728;2023-06-10T00:09:33;14.50;;;4.95;;
71622;SDS011;59473;53.214;5.728;2023-06-10T00:11:58;12.87;;;5.30;;
71622;SDS011;59473;53.214;5.728;2023-06-10T00:14:25;13.13;;;5.32;;
71622;SDS011;59473;53.214;5.728;2023-06-10T00:16:50;11.37;;;4.93;;
71622;SDS011;59473;53.214;5.728;2023-06-10T00:19:17;16.23;;;5.43;;
71622;SDS011;59473;53.214;5.728;2023-06-10T00:21:43;12.45;;;4.95;;
71622;SDS011;59473;53.214;5.728;2023-06-10T00:24:10;11.73;;;5.37;;
71622;SDS011;59473;53.214;5.728;2023-06-10T00:26:37;11.02;;;5.03;;
71622;SDS011;59473;53.214;5.728;2023-06-10T00:29:02;10.87;;;4.90;;
71622;SDS011;59473;53.214;5.728;2023-06-10T00:31:27;14.53;;;5.30;;
71622;SDS011;59473;53.214;5.728;2023-06-10T00:33:52;13.53;;;4.70;;
71622;SDS011;59473;53.214;5.728;2023-06-10T00:36:18;13.33;;;4.83;;
71622;SDS011;59473;53.214;5.728;2023-06-10T00:38:43;11.63;;;4.60;;
71622;SDS011;59473;53.214;5.728;2023-06-10T00:41:09;10.15;;;4.90;;
71622;SDS011;59473;53.214;5.728;2023-06-10T00:43:34;11.63;;;5.20;;
71622;SDS011;59473;53.214;5.728;2023-06-10T00:45:59;10.87;;;4.90;;
71622;SDS011;59473;53.214;5.728;2023-06-10T00:48:25;11.30;;;4.83;;
71622;SDS011;59473;53.214;5.728;2023-06-10T00:50:51;11.27;;;5.03;;
71622;SDS011;59473;53.214;5.728;2023-06-10T00:53:16;10.87;;;5.00;;
71622;SDS011;59473;53.214;5.728;2023-06-10T00:55:41;9.80;;;4.87;;
71622;SDS011;59473;53.214;5.728;2023-06-10T00:58:07;13.20;;;5.00;;
71622;SDS011;59473;53.214;5.728;2023-06-10T01:00:32;12.77;;;4.93;;
71622;SDS011;59473;53.214;5.728;2023-06-10T01:02:58;12.87;;;5.33;;
71622;SDS011;59473;53.214;5.728;2023-06-10T01:05:23;15.67;;;5.27;;
71622;SDS011;59473;53.214;5.728;2023-06-10T01:10:42;12.15;;;5.40;;
71622;SDS011;59473;53.214;5.728;2023-06-10T01:13:09;12.75;;;5.43;;
71622;SDS011;59473;53.214;5.728;2023-06-10T01:15:36;16.67;;;5.90;;
71622;SDS011;59473;53.214;5.728;2023-06-10T01:18:02;10.57;;;5.30;;
71622;SDS011;59473;53.214;5.728;2023-06-10T01:20:29;13.43;;;5.53;;
71622;SDS011;59473;53.214;5.728;2023-06-10T01:22:54;14.57;;;6.13;;
71622;SDS011;59473;53.214;5.728;2023-06-10T01:25:20;13.52;;;5.78;;
71622;SDS011;59473;53.214;5.728;2023-06-10T01:27:52;14.27;;;5.90;;
71622;SDS011;59473;53.214;5.728;2023-06-10T01:30:18;13.80;;;5.47;;
71622;SDS011;59473;53.214;5.728;2023-06-10T01:32:49;14.23;;;5.75;;
71622;SDS011;59473;53.214;5.728;2023-06-10T01:35:15;12.38;;;5.97;;
71622;SDS011;59473;53.214;5.728;2023-06-10T01:37:40;11.90;;;5.93;;
71622;SDS011;59473;53.214;5.728;2023-06-10T01:40:07;12.60;;;5.32;;
71622;SDS011;59473;53.214;5.728;2023-06-10T01:42:32;11.60;;;5.10;;
71622;SDS011;59473;53.214;5.728;2023-06-10T01:44:58;11.40;;;5.10;;
71622;SDS011;59473;53.214;5.728;2023-06-10T01:47:23;15.10;;;5.68;;
71622;SDS011;59473;53.214;5.728;2023-06-10T01:49:48;12.93;;;5.63;;
71622;SDS011;59473;53.214;5.728;2023-06-10T01:52:14;12.23;;;5.50;;
71622;SDS011;59473;53.214;5.728;2023-06-10T01:54:39;11.23;;;5.63;;
71622;SDS011;59473;53.214;5.728;2023-06-10T01:57:04;14.93;;;5.43;;
71622;SDS011;59473;53.214;5.728;2023-06-10T01:59:31;12.65;;;5.45;;
71622;SDS011;59473;53.214;5.728;2023-06-10T02:01:56;16.17;;;4.90;;
71622;SDS011;59473;53.214;5.728;2023-06-10T02:04:21;13.37;;;5.47;;
71622;SDS011;59473;53.214;5.728;2023-06-10T02:06:47;11.17;;;5.27;;
71622;SDS011;59473;53.214;5.728;2023-06-10T02:09:13;10.85;;;5.72;;
71622;SDS011;59473;53.214;5.728;2023-06-10T02:11:38;11.83;;;5.53;;
71622;SDS011;59473;53.214;5.728;2023-06-10T02:14:03;11.67;;;5.27;;
71622;SDS011;59473;53.214;5.728;2023-06-10T02:16:29;8.90;;;5.03;;
71622;SDS011;59473;53.214;5.728;2023-06-10T02:18:54;14.13;;;5.80;;
71622;SDS011;59473;53.214;5.728;2023-06-10T02:21:20;11.55;;;5.75;;
71622;SDS011;59473;53.214;5.728;2023-06-10T02:23:46;12.40;;;6.10;;
71622;SDS011;59473;53.214;5.728;2023-06-10T02:26:11;13.53;;;5.93;;
71622;SDS011;59473;53.214;5.728;2023-06-10T02:28:36;12.97;;;5.53;;
71622;SDS011;59473;53.214;5.728;2023-06-10T02:31:01;13.70;;;5.80;;
71622;SDS011;59473;53.214;5.728;2023-06-10T02:33:26;11.83;;;6.30;;
71622;SDS011;59473;53.214;5.728;2023-06-10T02:35:52;10.50;;;6.00;;
71622;SDS011;59473;53.214;5.728;2023-06-10T02:38:17;12.07;;;6.30;;
71622;SDS011;59473;53.214;5.728;2023-06-10T02:40:43;12.03;;;6.07;;
71622;SDS011;59473;53.214;5.728;2023-06-10T02:43:08;12.63;;;5.77;;
71622;SDS011;59473;53.214;5.728;2023-06-10T02:45:34;15.43;;;5.80;;
71622;SDS011;59473;53.214;5.728;2023-06-10T02:47:59;15.40;;;6.70;;
71622;SDS011;59473;53.214;5.728;2023-06-10T02:50:24;13.50;;;6.43;;
71622;SDS011;59473;53.214;5.728;2023-06-10T02:52:49;17.38;;;6.07;;
71622;SDS011;59473;53.214;5.728;2023-06-10T02:55:15;14.13;;;6.88;;
71622;SDS011;59473;53.214;5.728;2023-06-10T02:57:40;13.77;;;5.90;;
71622;SDS011;59473;53.214;5.728;2023-06-10T03:00:06;14.57;;;6.03;;
71622;SDS011;59473;53.214;5.728;2023-06-10T03:02:35;12.35;;;6.22;;
71622;SDS011;59473;53.214;5.728;2023-06-10T03:05:02;13.90;;;6.28;;
71622;SDS011;59473;53.214;5.728;2023-06-10T03:07:27;13.50;;;6.13;;
71622;SDS011;59473;53.214;5.728;2023-06-10T03:09:52;13.00;;;6.23;;
71622;SDS011;59473;53.214;5.728;2023-06-10T03:12:17;11.30;;;6.60;;
71622;SDS011;59473;53.214;5.728;2023-06-10T03:14:43;15.03;;;6.60;;
71622;SDS011;59473;53.214;5.728;2023-06-10T03:17:08;14.43;;;6.60;;
71622;SDS011;59473;53.214;5.728;2023-06-10T03:19:33;13.93;;;6.30;;
71622;SDS011;59473;53.214;5.728;2023-06-10T03:22:12;13.40;;;6.10;;
71622;SDS011;59473;53.214;5.728;2023-06-10T03:24:37;14.35;;;6.43;;
71622;SDS011;59473;53.214;5.728;2023-06-10T03:27:06;15.20;;;6.47;;
71622;SDS011;59473;53.214;5.728;2023-06-10T03:29:31;12.60;;;6.22;;
71622;SDS011;59473;53.214;5.728;2023-06-10T03:31:57;13.53;;;7.20;;
71622;SDS011;59473;53.214;5.728;2023-06-10T03:34:22;11.43;;;6.10;;
71622;SDS011;59473;53.214;5.728;2023-06-10T03:36:48;13.77;;;6.50;;
71622;SDS011;59473;53.214;5.728;2023-06-10T03:39:13;12.57;;;6.17;;
71622;SDS011;59473;53.214;5.728;2023-06-10T03:41:39;14.70;;;7.27;;
71622;SDS011;59473;53.214;5.728;2023-06-10T03:44:04;13.60;;;6.10;;
71622;SDS011;59473;53.214;5.728;2023-06-10T03:46:29;12.83;;;5.93;;
71622;SDS011;59473;53.214;5.728;2023-06-10T03:48:54;13.53;;;6.57;;
71622;SDS011;59473;53.214;5.728;2023-06-10T03:51:20;15.25;;;6.35;;
71622;SDS011;59473;53.214;5.728;2023-06-10T03:53:46;12.50;;;6.30;;
71622;SDS011;59473;53.214;5.728;2023-06-10T03:56:11;12.77;;;5.97;;
71622;SDS011;59473;53.214;5.728;2023-06-10T03:58:36;12.23;;;6.20;;
71622;SDS011;59473;53.214;5.728;2023-06-10T04:01:01;12.83;;;6.20;;
71622;SDS011;59473;53.214;5.728;2023-06-10T04:03:27;13.00;;;6.20;;
71622;SDS011;59473;53.214;5.728;2023-06-10T04:05:52;12.10;;;5.90;;
71622;SDS011;59473;53.214;5.728;2023-06-10T04:08:17;10.27;;;5.43;;
71622;SDS011;59473;53.214;5.728;2023-06-10T04:10:43;15.38;;;6.45;;
71622;SDS011;59473;53.214;5.728;2023-06-10T04:13:08;14.25;;;6.70;;
71622;SDS011;59473;53.214;5.728;2023-06-10T04:15:34;10.87;;;5.63;;
71622;SDS011;59473;53.214;5.728;2023-06-10T04:17:59;13.10;;;6.17;;
71622;SDS011;59473;53.214;5.728;2023-06-10T04:20:26;15.90;;;6.15;;
71622;SDS011;59473;53.214;5.728;2023-06-10T04:22:51;14.60;;;5.93;;
71622;SDS011;59473;53.214;5.728;2023-06-10T04:25:16;12.15;;;6.07;;
71622;SDS011;59473;53.214;5.728;2023-06-10T04:27:42;10.60;;;5.43;;
71622;SDS011;59473;53.214;5.728;2023-06-10T04:30:08;12.67;;;5.23;;
71622;SDS011;59473;53.214;5.728;2023-06-10T04:32:33;10.98;;;4.97;;
71622;SDS011;59473;53.214;5.728;2023-06-10T04:34:59;16.37;;;5.77;;
71622;SDS011;59473;53.214;5.728;2023-06-10T04:37:24;12.73;;;5.20;;
71622;SDS011;59473;53.214;5.728;2023-06-10T04:39:49;11.13;;;5.10;;
71622;SDS011;59473;53.214;5.728;2023-06-10T04:42:15;10.90;;;4.47;;
71622;SDS011;59473;53.214;5.728;2023-06-10T04:44:40;10.75;;;4.75;;
71622;SDS011;59473;53.214;5.728;2023-06-10T04:47:05;11.02;;;5.10;;
71622;SDS011;59473;53.214;5.728;2023-06-10T04:49:32;12.85;;;5.05;;
71622;SDS011;59473;53.214;5.728;2023-06-10T04:51:58;10.57;;;4.95;;
71622;SDS011;59473;53.214;5.728;2023-06-10T04:54:24;12.50;;;5.03;;
71622;SDS011;59473;53.214;5.728;2023-06-10T04:56:50;10.60;;;4.80;;
71622;SDS011;59473;53.214;5.728;2023-06-10T04:59:15;13.13;;;5.38;;
71622;SDS011;59473;53.214;5.728;2023-06-10T05:01:40;11.90;;;5.70;;
71622;SDS011;59473;53.214;5.728;2023-06-10T05:04:05;13.75;;;5.28;;
71622;SDS011;59473;53.214;5.728;2023-06-10T05:06:31;13.93;;;4.97;;
71622;SDS011;59473;53.214;5.728;2023-06-10T05:08:56;13.48;;;4.88;;
71622;SDS011;59473;53.214;5.728;2023-06-10T05:11:21;13.15;;;5.30;;
71622;SDS011;59473;53.214;5.728;2023-06-10T05:13:47;14.60;;;5.35;;
71622;SDS011;59473;53.214;5.728;2023-06-10T05:16:12;11.13;;;4.67;;
71622;SDS011;59473;53.214;5.728;2023-06-10T05:18:37;13.13;;;4.83;;
71622;SDS011;59473;53.214;5.728;2023-06-10T05:21:02;11.47;;;4.43;;
71622;SDS011;59473;53.214;5.728;2023-06-10T05:23:28;12.40;;;5.20;;
71622;SDS011;59473;53.214;5.728;2023-06-10T05:25:53;9.30;;;4.53;;
71622;SDS011;59473;53.214;5.728;2023-06-10T05:28:19;11.13;;;4.60;;
71622;SDS011;59473;53.214;5.728;2023-06-10T05:30:44;10.75;;;4.95;;
71622;SDS011;59473;53.214;5.728;2023-06-10T05:33:10;13.13;;;4.60;;
71622;SDS011;59473;53.214;5.728;2023-06-10T05:35:35;11.23;;;4.37;;
71622;SDS011;59473;53.214;5.728;2023-06-10T05:38:00;12.10;;;4.63;;
71622;SDS011;59473;53.214;5.728;2023-06-10T05:40:25;17.33;;;5.93;;
71622;SDS011;59473;53.214;5.728;2023-06-10T05:42:51;12.17;;;5.20;;
71622;SDS011;59473;53.214;5.728;2023-06-10T05:45:16;13.00;;;5.47;;
71622;SDS011;59473;53.214;5.728;2023-06-10T05:47:41;11.10;;;4.67;;
71622;SDS011;59473;53.214;5.728;2023-06-10T05:50:07;11.00;;;4.80;;
71622;SDS011;59473;53.214;5.728;2023-06-10T05:52:33;14.60;;;5.47;;
71622;SDS011;59473;53.214;5.728;2023-06-10T05:54:59;12.68;;;5.50;;
71622;SDS011;59473;53.214;5.728;2023-06-10T05:57:24;10.03;;;5.40;;
71622;SDS011;59473;53.214;5.728;2023-06-10T05:59:50;12.97;;;4.50;;
71622;SDS011;59473;53.214;5.728;2023-06-10T06:02:15;13.20;;;5.03;;
71622;SDS011;59473;53.214;5.728;2023-06-10T06:04:40;14.20;;;5.07;;
71622;SDS011;59473;53.214;5.728;2023-06-10T06:07:05;9.90;;;4.47;;
71622;SDS011;59473;53.214;5.728;2023-06-10T06:09:30;10.97;;;3.87;;
71622;SDS011;59473;53.214;5.728;2023-06-10T06:11:56;11.30;;;4.60;;
71622;SDS011;59473;53.214;5.728;2023-06-10T06:14:21;8.70;;;3.23;;
71622;SDS011;59473;53.214;5.728;2023-06-10T06:16:46;11.40;;;4.60;;
71622;SDS011;59473;53.214;5.728;2023-06-10T06:19:11;13.37;;;4.43;;
71622;SDS011;59473;53.214;5.728;2023-06-10T06:21:37;9.93;;;4.20;;
71622;SDS011;59473;53.214;5.728;2023-06-10T06:24:02;11.73;;;4.25;;
71622;SDS011;59473;53.214;5.728;2023-06-10T06:26:27;9.03;;;3.97;;
71622;SDS011;59473;53.214;5.728;2023-06-10T06:28:53;12.07;;;3.67;;
71622;SDS011;59473;53.214;5.728;2023-06-10T06:31:18;11.10;;;4.57;;
71622;SDS011;59473;53.214;5.728;2023-06-10T06:33:43;11.27;;;3.90;;
71622;SDS011;59473;53.214;5.728;2023-06-10T06:36:08;13.47;;;4.30;;
71622;SDS011;59473;53.214;5.728;2023-06-10T06:38:34;12.73;;;4.43;;
71622;SDS011;59473;53.214;5.728;2023-06-10T06:40:59;13.07;;;4.70;;
71622;SDS011;59473;53.214;5.728;2023-06-10T06:43:29;13.98;;;4.30;;
71622;SDS011;59473;53.214;5.728;2023-06-10T06:45:56;10.07;;;4.32;;
71622;SDS011;59473;53.214;5.728;2023-06-10T06:48:21;10.65;;;4.10;;
71622;SDS011;59473;53.214;5.728;2023-06-10T06:50:46;10.20;;;4.73;;
71622;SDS011;59473;53.214;5.728;2023-06-10T06:53:11;10.80;;;4.17;;
71622;SDS011;59473;53.214;5.728;2023-06-10T06:55:37;12.25;;;3.70;;
71622;SDS011;59473;53.214;5.728;2023-06-10T06:58:02;10.80;;;4.10;;
71622;SDS011;59473;53.214;5.728;2023-06-10T07:00:28;9.45;;;4.05;;
71622;SDS011;59473;53.214;5.728;2023-06-10T07:02:54;11.13;;;4.20;;
71622;SDS011;59473;53.214;5.728;2023-06-10T07:05:20;11.60;;;4.40;;
71622;SDS011;59473;53.214;5.728;2023-06-10T07:07:45;11.30;;;4.13;;
71622;SDS011;59473;53.214;5.728;2023-06-10T07:10:10;8.63;;;4.00;;
71622;SDS011;59473;53.214;5.728;2023-06-10T07:12:35;14.30;;;4.33;;
71622;SDS011;59473;53.214;5.728;2023-06-10T07:15:01;10.33;;;3.80;;
71622;SDS011;59473;53.214;5.728;2023-06-10T07:17:26;10.87;;;4.00;;
71622;SDS011;59473;53.214;5.728;2023-06-10T07:19:52;9.80;;;3.70;;
71622;SDS011;59473;53.214;5.728;2023-06-10T07:22:17;9.27;;;3.70;;
71622;SDS011;59473;53.214;5.728;2023-06-10T07:24:42;12.33;;;4.53;;
71622;SDS011;59473;53.214;5.728;2023-06-10T07:27:08;8.63;;;4.30;;
71622;SDS011;59473;53.214;5.728;2023-06-10T07:29:33;9.95;;;4.00;;
71622;SDS011;59473;53.214;5.728;2023-06-10T07:32:00;10.48;;;4.28;;
71622;SDS011;59473;53.214;5.728;2023-06-10T07:34:25;12.60;;;3.70;;
71622;SDS011;59473;53.214;5.728;2023-06-10T07:36:51;10.10;;;3.90;;
71622;SDS011;59473;53.214;5.728;2023-06-10T07:39:16;10.00;;;4.40;;
71622;SDS011;59473;53.214;5.728;2023-06-10T07:41:41;9.17;;;3.83;;
71622;SDS011;59473;53.214;5.728;2023-06-10T07:44:06;7.87;;;3.97;;
71622;SDS011;59473;53.214;5.728;2023-06-10T07:46:32;9.17;;;4.50;;
71622;SDS011;59473;53.214;5.728;2023-06-10T07:48:57;11.63;;;4.53;;
71622;SDS011;59473;53.214;5.728;2023-06-10T07:51:22;10.03;;;3.73;;
71622;SDS011;59473;53.214;5.728;2023-06-10T07:53:47;12.67;;;3.97;;
71622;SDS011;59473;53.214;5.728;2023-06-10T07:56:13;9.40;;;4.00;;
71622;SDS011;59473;53.214;5.728;2023-06-10T07:58:38;9.73;;;4.10;;
71622;SDS011;59473;53.214;5.728;2023-06-10T08:01:03;8.60;;;3.90;;
71622;SDS011;59473;53.214;5.728;2023-06-10T08:03:29;8.70;;;3.40;;
71622;SDS011;59473;53.214;5.728;2023-06-10T08:05:54;10.07;;;3.83;;
71622;SDS011;59473;53.214;5.728;2023-06-10T08:08:19;9.10;;;3.70;;
71622;SDS011;59473;53.214;5.728;2023-06-10T08:10:44;7.87;;;3.63;;
71622;SDS011;59473;53.214;5.728;2023-06-10T08:13:10;9.73;;;4.17;;
71622;SDS011;59473;53.214;5.728;2023-06-10T08:15:35;9.77;;;3.87;;
71622;SDS011;59473;53.214;5.728;2023-06-10T08:18:00;11.00;;;4.13;;
71622;SDS011;59473;53.214;5.728;2023-06-10T08:20:25;8.60;;;3.20;;
71622;SDS011;59473;53.214;5.728;2023-06-10T08:22:51;8.07;;;3.23;;
71622;SDS011;59473;53.214;5.728;2023-06-10T08:25:16;10.50;;;3.27;;
71622;SDS011;59473;53.214;5.728;2023-06-10T08:27:41;9.27;;;3.50;;
71622;SDS011;59473;53.214;5.728;2023-06-10T08:30:07;11.07;;;3.87;;
71622;SDS011;59473;53.214;5.728;2023-06-10T08:32:32;10.45;;;3.78;;
71622;SDS011;59473;53.214;5.728;2023-06-10T08:34:58;10.73;;;3.53;;
71622;SDS011;59473;53.214;5.728;2023-06-10T08:37:23;10.57;;;3.63;;
71622;SDS011;59473;53.214;5.728;2023-06-10T08:39:49;7.73;;;3.83;;
71622;SDS011;59473;53.214;5.728;2023-06-10T08:44:49;7.53;;;3.45;;
71622;SDS011;59473;53.214;5.728;2023-06-10T08:47:17;9.52;;;3.40;;
71622;SDS011;59473;53.214;5.728;2023-06-10T08:49:44;9.67;;;3.67;;
71622;SDS011;59473;53.214;5.728;2023-06-10T08:52:11;12.10;;;3.47;;
71622;SDS011;59473;53.214;5.728;2023-06-10T08:54:38;11.25;;;4.03;;
71622;SDS011;59473;53.214;5.728;2023-06-10T08:57:06;7.57;;;3.25;;
71622;SDS011;59473;53.214;5.728;2023-06-10T08:59:31;7.57;;;3.33;;
71622;SDS011;59473;53.214;5.728;2023-06-10T09:01:56;8.53;;;3.47;;
71622;SDS011;59473;53.214;5.728;2023-06-10T09:04:23;8.98;;;3.50;;
71622;SDS011;59473;53.214;5.728;2023-06-10T09:06:48;9.60;;;4.18;;
71622;SDS011;59473;53.214;5.728;2023-06-10T09:09:14;10.90;;;3.47;;
71622;SDS011;59473;53.214;5.728;2023-06-10T09:11:40;7.80;;;3.40;;
71622;SDS011;59473;53.214;5.728;2023-06-10T09:14:07;10.98;;;3.60;;
71622;SDS011;59473;53.214;5.728;2023-06-10T09:16:32;9.93;;;3.40;;
71622;SDS011;59473;53.214;5.728;2023-06-10T09:18:57;8.13;;;3.13;;
71622;SDS011;59473;53.214;5.728;2023-06-10T09:21:24;11.07;;;3.40;;
71622;SDS011;59473;53.214;5.728;2023-06-10T09:23:49;9.37;;;3.70;;
71622;SDS011;59473;53.214;5.728;2023-06-10T09:26:15;10.13;;;3.17;;
71622;SDS011;59473;53.214;5.728;2023-06-10T09:28:41;7.03;;;2.72;;
71622;SDS011;59473;53.214;5.728;2023-06-10T09:31:07;7.95;;;2.72;;
71622;SDS011;59473;53.214;5.728;2023-06-10T09:33:33;8.13;;;3.00;;
71622;SDS011;59473;53.214;5.728;2023-06-10T09:36:01;8.40;;;3.00;;
71622;SDS011;59473;53.214;5.728;2023-06-10T09:38:34;7.00;;;3.30;;
71622;SDS011;59473;53.214;5.728;2023-06-10T09:40:59;7.72;;;3.50;;
71622;SDS011;59473;53.214;5.728;2023-06-10T09:43:39;9.18;;;3.67;;
71622;SDS011;59473;53.214;5.728;2023-06-10T09:46:05;7.70;;;3.05;;
71622;SDS011;59473;53.214;5.728;2023-06-10T09:48:34;11.03;;;3.23;;
71622;SDS011;59473;53.214;5.728;2023-06-10T09:50:59;10.20;;;3.30;;
71622;SDS011;59473;53.214;5.728;2023-06-10T09:53:24;8.77;;;3.08;;
71622;SDS011;59473;53.214;5.728;2023-06-10T09:55:51;10.13;;;3.20;;
71622;SDS011;59473;53.214;5.728;2023-06-10T09:58:17;8.23;;;3.42;;
71622;SDS011;59473;53.214;5.728;2023-06-10T10:00:42;7.68;;;3.17;;
71622;SDS011;59473;53.214;5.728;2023-06-10T10:03:07;8.18;;;3.20;;
71622;SDS011;59473;53.214;5.728;2023-06-10T10:05:32;9.65;;;2.80;;
71622;SDS011;59473;53.214;5.728;2023-06-10T10:07:58;7.73;;;2.67;;
71622;SDS011;59473;53.214;5.728;2023-06-10T10:10:23;7.30;;;3.60;;
71622;SDS011;59473;53.214;5.728;2023-06-10T10:12:50;8.60;;;3.63;;
71622;SDS011;59473;53.214;5.728;2023-06-10T10:15:16;8.13;;;3.50;;
71622;SDS011;59473;53.214;5.728;2023-06-10T10:17:46;10.37;;;4.07;;
71622;SDS011;59473;53.214;5.728;2023-06-10T10:20:14;10.85;;;3.75;;
71622;SDS011;59473;53.214;5.728;2023-06-10T10:22:43;9.68;;;3.78;;
71622;SDS011;59473;53.214;5.728;2023-06-10T10:25:12;12.30;;;3.88;;
71622;SDS011;59473;53.214;5.728;2023-06-10T10:27:57;7.47;;;3.30;;
71622;SDS011;59473;53.214;5.728;2023-06-10T10:30:23;10.23;;;3.90;;
71622;SDS011;59473;53.214;5.728;2023-06-10T10:35:24;11.52;;;3.50;;
71622;SDS011;59473;53.214;5.728;2023-06-10T10:37:53;14.30;;;3.83;;
71622;SDS011;59473;53.214;5.728;2023-06-10T10:40:20;8.32;;;3.88;;
71622;SDS011;59473;53.214;5.728;2023-06-10T10:42:46;8.77;;;3.70;;
71622;SDS011;59473;53.214;5.728;2023-06-10T10:45:12;8.88;;;3.58;;
71622;SDS011;59473;53.214;5.728;2023-06-10T10:47:38;8.90;;;3.20;;
71622;SDS011;59473;53.214;5.728;2023-06-10T10:50:25;8.68;;;3.33;;
71622;SDS011;59473;53.214;5.728;2023-06-10T10:53:01;9.32;;;3.53;;
71622;SDS011;59473;53.214;5.728;2023-06-10T10:55:27;10.07;;;3.43;;
71622;SDS011;59473;53.214;5.728;2023-06-10T11:00:27;9.32;;;3.30;;
71622;SDS011;59473;53.214;5.728;2023-06-10T11:02:52;8.02;;;3.10;;
71622;SDS011;59473;53.214;5.728;2023-06-10T11:05:19;8.23;;;2.58;;
71622;SDS011;59473;53.214;5.728;2023-06-10T11:07:55;6.80;;;3.20;;
71622;SDS011;59473;53.214;5.728;2023-06-10T11:10:28;8.48;;;3.20;;
71622;SDS011;59473;53.214;5.728;2023-06-10T11:12:54;9.20;;;3.05;;
71622;SDS011;59473;53.214;5.728;2023-06-10T11:15:23;7.65;;;2.50;;
71622;SDS011;59473;53.214;5.728;2023-06-10T11:23:10;7.10;;;2.72;;
71622;SDS011;59473;53.214;5.728;2023-06-10T11:25:39;8.00;;;2.50;;
71622;SDS011;59473;53.214;5.728;2023-06-10T11:28:16;10.70;;;2.50;;
71622;SDS011;59473;53.214;5.728;2023-06-10T11:30:42;6.55;;;2.75;;
71622;SDS011;59473;53.214;5.728;2023-06-10T11:33:07;9.10;;;3.17;;
71622;SDS011;59473;53.214;5.728;2023-06-10T11:35:33;8.73;;;2.87;;
71622;SDS011;59473;53.214;5.728;2023-06-10T11:37:58;13.27;;;2.80;;
71622;SDS011;59473;53.214;5.728;2023-06-10T11:40:23;7.82;;;2.92;;
71622;SDS011;59473;53.214;5.728;2023-06-10T11:42:49;10.70;;;4.13;;
71622;SDS011;59473;53.214;5.728;2023-06-10T11:45:17;13.57;;;3.37;;
71622;SDS011;59473;53.214;5.728;2023-06-10T11:47:54;9.73;;;3.40;;
71622;SDS011;59473;53.214;5.728;2023-06-10T11:50:27;11.50;;;2.92;;
71622;SDS011;59473;53.214;5.728;2023-06-10T11:52:52;6.57;;;3.45;;
71622;SDS011;59473;53.214;5.728;2023-06-10T11:55:20;7.93;;;3.50;;
71622;SDS011;59473;53.214;5.728;2023-06-10T11:57:46;11.67;;;3.47;;
71622;SDS011;59473;53.214;5.728;2023-06-10T12:00:11;8.60;;;3.43;;
71622;SDS011;59473;53.214;5.728;2023-06-10T12:02:36;14.33;;;3.53;;
71622;SDS011;59473;53.214;5.728;2023-06-10T12:05:12;9.77;;;3.87;;
71622;SDS011;59473;53.214;5.728;2023-06-10T12:07:38;9.20;;;3.90;;
71622;SDS011;59473;53.214;5.728;2023-06-10T12:10:03;13.30;;;4.23;;
71622;SDS011;59473;53.214;5.728;2023-06-10T12:12:29;13.82;;;4.70;;
71622;SDS011;59473;53.214;5.728;2023-06-10T12:14:57;12.03;;;4.17;;
71622;SDS011;59473;53.214;5.728;2023-06-10T12:17:24;10.88;;;4.03;;
71622;SDS011;59473;53.214;5.728;2023-06-10T12:20:02;9.43;;;3.93;;
71622;SDS011;59473;53.214;5.728;2023-06-10T12:22:37;9.77;;;4.38;;
71622;SDS011;59473;53.214;5.728;2023-06-10T12:25:03;10.23;;;4.10;;
71622;SDS011;59473;53.214;5.728;2023-06-10T12:27:29;10.98;;;4.53;;
71622;SDS011;59473;53.214;5.728;2023-06-10T12:29:55;10.50;;;4.17;;
71622;SDS011;59473;53.214;5.728;2023-06-10T12:32:21;12.93;;;4.80;;
71622;SDS011;59473;53.214;5.728;2023-06-10T12:35:01;13.73;;;4.63;;
71622;SDS011;59473;53.214;5.728;2023-06-10T12:37:26;14.40;;;4.35;;
71622;SDS011;59473;53.214;5.728;2023-06-10T12:39:52;10.48;;;4.20;;
71622;SDS011;59473;53.214;5.728;2023-06-10T12:42:21;9.20;;;3.95;;
71622;SDS011;59473;53.214;5.728;2023-06-10T12:44:47;11.65;;;4.32;;
71622;SDS011;59473;53.214;5.728;2023-06-10T12:47:17;8.98;;;3.30;;
71622;SDS011;59473;53.214;5.728;2023-06-10T12:49:43;13.03;;;4.77;;
71622;SDS011;59473;53.214;5.728;2023-06-10T12:52:08;14.63;;;5.00;;
71622;SDS011;59473;53.214;5.728;2023-06-10T12:54:34;15.30;;;5.20;;
71622;SDS011;59473;53.214;5.728;2023-06-10T12:56:59;17.85;;;4.72;;
71622;SDS011;59473;53.214;5.728;2023-06-10T12:59:24;10.63;;;3.40;;
71622;SDS011;59473;53.214;5.728;2023-06-10T13:01:53;10.07;;;4.60;;
71622;SDS011;59473;53.214;5.728;2023-06-10T13:04:18;14.63;;;4.68;;
71622;SDS011;59473;53.214;5.728;2023-06-10T13:06:44;12.50;;;4.30;;
71622;SDS011;59473;53.214;5.728;2023-06-10T13:09:09;16.52;;;4.47;;
71622;SDS011;59473;53.214;5.728;2023-06-10T13:11:35;17.90;;;4.13;;
71622;SDS011;59473;53.214;5.728;2023-06-10T13:14:01;14.07;;;4.60;;
71622;SDS011;59473;53.214;5.728;2023-06-10T13:16:27;11.13;;;4.85;;
71622;SDS011;59473;53.214;5.728;2023-06-10T13:18:53;11.30;;;4.67;;
71622;SDS011;59473;53.214;5.728;2023-06-10T13:21:18;12.52;;;4.65;;
71622;SDS011;59473;53.214;5.728;2023-06-10T13:23:45;11.65;;;4.63;;
71622;SDS011;59473;53.214;5.728;2023-06-10T13:26:13;9.77;;;4.72;;
71622;SDS011;59473;53.214;5.728;2023-06-10T13:28:38;13.10;;;4.47;;
71622;SDS011;59473;53.214;5.728;2023-06-10T13:31:03;12.43;;;4.53;;
71622;SDS011;59473;53.214;5.728;2023-06-10T13:33:28;13.20;;;4.87;;
71622;SDS011;59473;53.214;5.728;2023-06-10T13:35:54;13.27;;;4.53;;
71622;SDS011;59473;53.214;5.728;2023-06-10T13:38:19;13.73;;;4.50;;
71622;SDS011;59473;53.214;5.728;2023-06-10T13:40:44;12.03;;;4.23;;
71622;SDS011;59473;53.214;5.728;2023-06-10T13:43:09;14.67;;;4.50;;
71622;SDS011;59473;53.214;5.728;2023-06-10T13:45:35;11.87;;;4.30;;
71622;SDS011;59473;53.214;5.728;2023-06-10T13:48:00;20.33;;;4.30;;
71622;SDS011;59473;53.214;5.728;2023-06-10T13:50:26;12.10;;;4.18;;
71622;SDS011;59473;53.214;5.728;2023-06-10T13:52:51;14.50;;;3.83;;
71622;SDS011;59473;53.214;5.728;2023-06-10T13:55:17;14.37;;;4.30;;
71622;SDS011;59473;53.214;5.728;2023-06-10T13:57:43;12.80;;;3.70;;
71622;SDS011;59473;53.214;5.728;2023-06-10T14:00:09;14.17;;;3.80;;
71622;SDS011;59473;53.214;5.728;2023-06-10T14:02:35;11.95;;;3.80;;
71622;SDS011;59473;53.214;5.728;2023-06-10T14:05:00;7.97;;;3.37;;
71622;SDS011;59473;53.214;5.728;2023-06-10T14:07:26;12.77;;;3.83;;
71622;SDS011;59473;53.214;5.728;2023-06-10T14:09:52;11.30;;;3.30;;
71622;SDS011;59473;53.214;5.728;2023-06-10T14:12:17;15.77;;;3.70;;
71622;SDS011;59473;53.214;5.728;2023-06-10T14:14:42;11.83;;;3.97;;
71622;SDS011;59473;53.214;5.728;2023-06-10T14:17:08;14.33;;;3.80;;
71622;SDS011;59473;53.214;5.728;2023-06-10T14:19:33;9.47;;;3.07;;
71622;SDS011;59473;53.214;5.728;2023-06-10T14:21:58;10.10;;;3.47;;
71622;SDS011;59473;53.214;5.728;2023-06-10T14:24:23;12.07;;;3.80;;
71622;SDS011;59473;53.214;5.728;2023-06-10T14:26:48;12.27;;;3.80;;
71622;SDS011;59473;53.214;5.728;2023-06-10T14:29:14;13.00;;;3.53;;
71622;SDS011;59473;53.214;5.728;2023-06-10T14:31:39;9.17;;;3.33;;
71622;SDS011;59473;53.214;5.728;2023-06-10T14:34:04;9.55;;;2.95;;
71622;SDS011;59473;53.214;5.728;2023-06-10T14:36:32;10.50;;;3.60;;
71622;SDS011;59473;53.214;5.728;2023-06-10T14:38:58;12.07;;;3.67;;
71622;SDS011;59473;53.214;5.728;2023-06-10T14:41:23;10.10;;;3.27;;
71622;SDS011;59473;53.214;5.728;2023-06-10T14:43:48;13.20;;;3.70;;
71622;SDS011;59473;53.214;5.728;2023-06-10T14:46:13;8.63;;;3.30;;
71622;SDS011;59473;53.214;5.728;2023-06-10T14:48:39;12.93;;;3.90;;